Randolph Air Force Base
KRND : rendu visible

Aérodrome :











RETROUVEZ-NOUS SUR...

 
LOGIN :

S'inscrire | Disclaimer

   EN    FR    IT 

 









Légende :    VFR   VFR Marginal   IFR   IFR Intensif   IFR Très Intensif
Visi : 
Plafond : 
>= 8 km
>= 3000ft
5 à 8 km
1000 à 3000 ft
1500m à 5 km
500 à 1000 ft
800 à 1500m
200 à 500 ft
< 800m
< 200 ft
Symboles :   Orages  Brouillard  Fortes neiges  Fortes précipitations  Vent > 20 kt






- Altitude de l'aérodrome : 761 ft


KRND - Randolph Air Force Base

DERNIER METAR :
  • 061356Z AUTO 35012G19KT 8SM CLR 14/07 A3015 RMK AO2 SLP208 T01410067

METARs EXPIRÉS :
  • 061336Z AUTO 35011KT 5SM HZ CLR 13/08 A3014 RMK AO2 SLP204
  • 061301Z AUTO 34010KT 4SM HZ CLR 13/09 A3012 RMK AO2 SLP197
  • 061256Z AUTO 34011KT 5SM HZ CLR 13/09 A3012 RMK AO2 SLP197 T01330090
  • 061241Z AUTO 34009KT 5SM HZ CLR 13/11 A3011 RMK AO2 SLP194
  • 061206Z AUTO 34007KT 4SM BR CLR 12/12 A3009 RMK AO2 SLP187

TAF TAF KRND
Valide du 05 à 18h jusqu'au 07 à 00h UTC


051800Z 0518/0624 VRB04KT 9999 OVC007 QNH3003INS
BECMG 0518/0519 19008KT 9999 BKN015 BKN120 QNH3000INS
BECMG 0519/0520 20010KT 9999 FEW025 SCT120 QNH2991INS
BECMG 0604/0605 VRB06KT 4800 BR BKN011 QNH3000INS
BECMG 0609/0610 33012KT 9999 NSW SCT015 QNH3002INS
BECMG 0614/0615 36020G25KT 9999 SKC QNH3016INS
BECMG 0620/0621 35012KT 9999 SKC QNH3015INS TX23/0522Z TN14/0614Z LAST NO AMDS AFT 0601 NEXT 0818



MET'MAP, la Météo Aéronautique d'un coup d'oeil ! - Copyright ORBIFLY Décembre 2007 - Disclaimer

ORBIFLY MET'MAP TEAM :

Programmation & Développement : Alexandra Zaïnal
Sur une idée originale de : Baudouin d'Aumeries
Assistance à la programmation : Marc-Olivier Méhu
Soutien technique & logistique : Manuel Goepfert

Contact : metmap@orbifly.com




SOURCES & CREDITS :

   NOAA       Earth
Advisory